Time;durP1;ratioP1;P1;durP2;ratioP2;P2;SDS_P1;SDS_P2;PMS_P1;PMS_P2;Temp;Humidity;BMP_temperature;BMP_pressure;BME280_temperature;BME280_humidity;BME280_pressure;Samples;Min_cycle;Max_cycle;Signal;HPM_P1;HPM_P2
2022/12/20 00:00:17;;;;;;;37.13;20.88;;;;;;;-2.64;82.86;100473.91;5112156;28;20048;-72
2022/12/20 00:02:44;;;;;;;48.03;24.60;;;;;;;-2.61;82.81;100473.94;5111607;28;20052;-73
2022/12/20 00:05:12;;;;;;;42.40;22.40;;;;;;;-2.67;83.06;100477.31;5112216;28;20043;-73
2022/12/20 00:07:39;;;;;;;51.00;30.25;;;;;;;-10.23;82.09;99156.28;5111790;28;20188;-72
2022/12/20 00:10:07;;;;;;;48.05;24.83;;;;;;;-2.67;83.15;100461.75;5094057;28;20048;-73
2022/12/20 00:12:35;;;;;;;47.03;23.45;;;;;;;-2.69;83.35;100465.16;5114854;28;20036;-73
2022/12/20 00:15:02;;;;;;;46.33;23.10;;;;;;;-4.65;82.99;100118.09;5114819;28;20115;-72
2022/12/20 00:17:30;;;;;;;48.25;24.38;;;;;;;-10.88;82.63;99060.78;5114917;28;20036;-73
2022/12/20 00:19:57;;;;;;;47.38;25.42;;;;;;;-9.38;83.02;99315.59;5114587;28;20040;-73
2022/12/20 00:22:23;;;;;;;49.42;24.58;;;;;;;-3.34;83.42;100403.56;5114514;28;20044;-73
2022/12/20 00:24:50;;;;;;;50.22;25.13;;;;;;;-2.71;83.59;100448.69;5115188;28;20038;-72
2022/12/20 00:27:17;;;;;;;45.92;25.88;;;;;;;-2.70;83.72;100453.03;5114761;28;20040;-73
2022/12/20 00:29:46;;;;;;;44.28;23.17;;;;;;;-10.35;82.96;99458.34;5097578;28;20052;-74
2022/12/20 00:32:13;;;;;;;49.28;26.40;;;;;;;-2.75;84.13;100467.66;5114991;28;20119;-73
2022/12/20 00:34:41;;;;;;;47.00;23.88;;;;;;;-10.88;83.03;99057.34;5114727;28;20052;-72
2022/12/20 00:37:08;;;;;;;41.75;22.77;;;;;;;-2.72;83.79;100445.22;5114859;28;20093;-73
2022/12/20 00:39:54;;;;;;;47.70;23.83;;;;;;;-14.09;82.71;98499.09;5115785;28;20044;-74
2022/12/20 00:42:22;;;;;;;48.17;24.15;;;;;;;-10.02;83.18;99203.78;5115012;28;20032;-73
2022/12/20 00:44:52;;;;;;;52.20;24.50;;;;;;;-4.51;83.86;100139.03;5114666;28;20286;-73
2022/12/20 00:47:24;;;;;;;50.05;23.15;;;;;;;-8.15;83.45;99535.06;5114502;28;20065;-73
2022/12/20 00:49:54;;;;;;;46.78;24.88;;;;;;;-2.69;83.95;100453.06;5098138;28;20107;-73
2022/12/20 00:52:20;;;;;;;43.05;22.73;;;;;;;-2.67;83.82;100451.38;5114925;28;20040;-73
2022/12/20 00:54:51;;;;;;;46.67;23.83;;;;;;;-10.27;83.08;99163.88;5115224;28;20085;-74
2022/12/20 00:57:18;;;;;;;51.38;24.92;;;;;;;-2.69;84.12;100460.84;5115608;28;20048;-74
2022/12/20 00:59:45;;;;;;;46.67;22.20;;;;;;;-6.20;83.79;99868.03;5114848;28;20074;-74
2022/12/20 01:02:12;;;;;;;41.72;22.40;;;;;;;-10.97;83.33;99206.44;5115264;28;20036;-74
2022/12/20 01:04:38;;;;;;;51.28;26.65;;;;;;;-9.93;83.39;99239.88;5114695;28;20036;-73
2022/12/20 01:07:06;;;;;;;44.53;22.83;;;;;;;-10.61;83.44;99124.63;5114823;28;20051;-73
2022/12/20 01:09:33;;;;;;;49.60;25.23;;;;;;;-2.73;84.30;100473.75;5113496;28;20044;-73
2022/12/20 01:12:00;;;;;;;49.03;23.70;;;;;;;-11.75;83.28;99273.22;5112814;28;20039;-73
2022/12/20 01:14:27;;;;;;;47.47;23.23;;;;;;;-13.12;83.25;98959.03;5112593;28;20035;-73
2022/12/20 01:16:54;;;;;;;46.97;23.45;;;;;;;-2.74;84.34;100474.59;5112318;28;20046;-72
2022/12/20 01:19:26;;;;;;;50.45;25.88;;;;;;;-12.55;83.35;98788.88;5080931;28;20044;-72
2022/12/20 01:21:55;;;;;;;53.40;25.77;;;;;;;-2.75;84.59;100537.72;5113906;28;20063;-74
2022/12/20 01:24:25;;;;;;;50.58;27.10;;;;;;;-10.69;84.06;99092.84;5112236;28;20032;-73
2022/12/20 01:26:51;;;;;;;46.45;23.30;;;;;;;-3.39;84.87;100682.56;5112138;28;20032;-72
2022/12/20 01:29:21;;;;;;;49.10;24.27;;;;;;;-2.83;85.28;100456.28;5112866;28;20063;-72
2022/12/20 01:31:48;;;;;;;52.83;26.67;;;;;;;-12.40;84.08;99082.06;5112772;28;20101;-74
2022/12/20 01:34:15;;;;;;;51.67;27.05;;;;;;;-10.26;84.36;99173.28;5111713;28;20048;-73
2022/12/20 01:36:42;;;;;;;45.33;26.92;;;;;;;-8.22;84.31;99507.47;5113361;28;20035;-72
2022/12/20 01:39:13;;;;;;;48.78;24.85;;;;;;;-6.23;84.56;99839.53;5111959;28;20105;-73
2022/12/20 01:41:45;;;;;;;56.22;28.17;;;;;;;-10.17;84.20;99161.56;5112499;28;20040;-74
2022/12/20 01:44:45;;;;;;;51.67;25.67;;;;;;;-10.58;84.52;99096.53;5112962;28;20040;-73
2022/12/20 01:47:13;;;;;;;51.42;27.00;;;;;;;-7.43;84.56;99695.31;5103265;28;20058;-73
2022/12/20 01:49:44;;;;;;;58.25;28.70;;;;;;;-12.01;83.64;98844.78;5095266;28;20044;-72
2022/12/20 01:52:15;;;;;;;47.20;24.90;;;;;;;-2.73;84.84;100425.31;5079031;28;20074;-73
2022/12/20 01:54:46;;;;;;;49.25;26.23;;;;;;;-2.72;84.76;100442.63;5111190;28;20055;-72
2022/12/20 01:57:17;;;;;;;48.22;27.13;;;;;;;-2.72;84.83;100441.78;5111717;28;20051;-72
2022/12/20 01:59:49;;;;;;;43.78;24.60;;;;;;;-10.05;83.65;99353.25;5113096;28;20102;-73
2022/12/20 02:02:22;;;;;;;49.60;25.27;;;;;;;-2.73;84.72;100427.06;5112600;28;20046;-74
2022/12/20 02:04:49;;;;;;;51.55;26.90;;;;;;;-10.00;83.83;99190.16;5113302;28;20056;-73
2022/12/20 02:07:21;;;;;;;52.97;24.05;;;;;;;-10.10;83.82;99188.22;5112774;28;20040;-73
2022/12/20 02:09:49;;;;;;;49.63;25.90;;;;;;;-2.72;84.51;100440.03;5113054;28;20036;-73
2022/12/20 02:12:21;;;;;;;44.67;23.75;;;;;;;-4.65;84.10;100095.69;5112453;28;20050;-73
2022/12/20 02:15:05;;;;;;;46.28;24.02;;;;;;;-2.67;84.34;100445.31;5112677;28;20314;-73
2022/12/20 02:17:44;;;;;;;43.75;23.08;;;;;;;-10.38;83.23;99108.94;5113013;28;20055;-73
2022/12/20 02:20:49;;;;;;;52.47;23.95;;;;;;;-6.10;83.85;99838.97;5112095;28;20047;-73
2022/12/20 02:23:44;;;;;;;42.67;23.50;;;;;;;-10.00;83.13;99169.66;5029613;28;20055;-72
2022/12/20 02:26:35;;;;;;;43.35;22.08;;;;;;;-10.15;83.33;99153.91;5112111;28;20085;-72
2022/12/20 02:29:30;;;;;;;40.38;22.08;;;;;;;-2.71;83.96;100402.88;5109551;28;20040;-72
2022/12/20 02:32:09;;;;;;;45.65;22.55;;;;;;;-2.70;83.84;100402.00;5113702;27;20060;-72
2022/12/20 02:34:38;;;;;;;40.65;21.20;;;;;;;-10.10;82.60;99259.97;5110833;28;20128;-73
2022/12/20 02:37:05;;;;;;;42.50;23.25;;;;;;;-2.69;83.55;100406.34;5095798;28;20044;-73
2022/12/20 02:39:35;;;;;;;38.63;21.52;;;;;;;-2.68;83.53;100389.06;5114083;28;20109;-73
2022/12/20 02:42:09;;;;;;;36.97;20.60;;;;;;;-9.87;82.89;99186.19;5114112;28;20071;-73
2022/12/20 02:47:30;;;;;;;38.72;19.80;;;;;;;-10.98;82.63;98970.94;5113985;28;20070;-71
2022/12/20 02:50:00;;;;;;;40.92;20.83;;;;;;;-2.65;83.48;100389.09;5112997;28;20040;-71
2022/12/20 02:52:31;;;;;;;39.38;21.25;;;;;;;-9.27;82.63;99249.94;5113792;28;20103;-71
2022/12/20 02:55:00;;;;;;;37.03;22.50;;;;;;;-2.89;83.28;100342.06;5097491;28;20043;-73
2022/12/20 02:57:34;;;;;;;39.40;23.45;;;;;;;-3.21;83.32;100429.72;5112963;28;20327;-72
2022/12/20 03:00:05;;;;;;;40.10;21.70;;;;;;;-2.62;83.25;100395.22;5112947;28;20036;-72
2022/12/20 03:05:16;;;;;;;37.55;20.98;;;;;;;-4.29;83.10;100102.34;5113322;28;20044;-74
2022/12/20 03:07:43;;;;;;;36.20;19.17;;;;;;;-9.67;82.42;99179.81;5114274;28;20066;-73
2022/12/20 03:10:12;;;;;;;39.45;23.35;;;;;;;-2.59;83.33;100394.38;5113661;28;20040;-72
2022/12/20 03:12:39;;;;;;;42.30;23.08;;;;;;;-2.59;83.29;100409.09;5112846;28;20040;-72
2022/12/20 03:15:08;;;;;;;40.85;23.20;;;;;;;-2.57;83.10;100397.00;5111836;28;20067;-74
2022/12/20 03:17:37;;;;;;;41.60;23.60;;;;;;;-10.28;82.37;99081.00;5112642;28;20358;-72
2022/12/20 03:20:06;;;;;;;41.65;22.13;;;;;;;-5.64;83.08;99874.25;5114001;28;20040;-73
2022/12/20 03:22:33;;;;;;;45.30;24.17;;;;;;;-7.06;82.89;99873.03;5096222;28;20035;-72
2022/12/20 03:25:00;;;;;;;40.95;21.77;;;;;;;-6.60;83.11;100021.88;5114606;28;20300;-72
2022/12/20 03:27:27;;;;;;;46.08;25.13;;;;;;;-4.53;83.48;100052.75;5113335;28;20040;-72
2022/12/20 03:29:55;;;;;;;41.35;22.92;;;;;;;-10.80;82.77;98973.94;5112402;28;20046;-73
2022/12/20 03:32:22;;;;;;;40.08;21.58;;;;;;;-2.60;83.68;100443.69;5113471;28;20040;-72
2022/12/20 03:34:54;;;;;;;43.03;25.38;;;;;;;-2.63;83.82;100390.88;5113783;28;20098;-72
2022/12/20 03:37:22;;;;;;;45.80;25.45;;;;;;;-2.62;83.69;100368.38;5114385;28;20044;-72
2022/12/20 03:39:50;;;;;;;41.55;22.15;;;;;;;-9.03;82.98;99280.41;5097287;28;20044;-71
2022/12/20 03:42:23;;;;;;;39.00;21.42;;;;;;;-20.25;81.50;97477.66;5114089;28;20044;-72
2022/12/20 03:45:03;;;;;;;40.17;22.83;;;;;;;-8.79;82.80;99460.78;5113647;28;20044;-72
2022/12/20 03:47:32;;;;;;;44.83;22.75;;;;;;;-3.17;83.59;100296.69;5112133;28;20040;-70
2022/12/20 03:50:00;;;;;;;45.33;21.88;;;;;;;-3.16;83.56;100278.56;5112376;28;20058;-70
2022/12/20 03:52:29;;;;;;;41.85;22.45;;;;;;;-2.57;83.89;100382.31;5112573;28;20059;-72
2022/12/20 03:54:56;;;;;;;43.13;22.23;;;;;;;-11.68;82.53;99115.75;5112429;28;20048;-72
2022/12/20 03:57:23;;;;;;;45.55;23.70;;;;;;;-2.54;83.77;100382.34;5111992;28;20063;-73
2022/12/20 03:59:50;;;;;;;43.88;20.80;;;;;;;-9.20;82.96;99619.78;5112688;28;20048;-72
2022/12/20 04:02:18;;;;;;;40.83;22.48;;;;;;;-10.30;82.70;99225.28;5096351;28;20036;-72
2022/12/20 04:04:44;;;;;;;42.03;23.25;;;;;;;-4.37;83.70;100084.09;5113579;28;20036;-72
2022/12/20 04:07:13;;;;;;;40.33;21.88;;;;;;;-9.29;82.83;99220.81;5113965;28;20108;-73
2022/12/20 04:09:39;;;;;;;38.22;19.67;;;;;;;-9.74;82.83;99130.91;5114035;28;20047;-72
2022/12/20 04:12:06;;;;;;;42.22;21.83;;;;;;;-2.49;83.65;100372.03;5113548;28;20046;-72
2022/12/20 04:14:37;;;;;;;40.42;24.00;;;;;;;-6.65;83.16;99734.72;5095457;28;20036;-72
2022/12/20 04:17:04;;;;;;;43.17;22.73;;;;;;;-5.35;83.19;99899.72;5113684;28;20055;-73
2022/12/20 04:19:31;;;;;;;44.03;25.60;;;;;;;-2.50;83.63;100401.44;5113463;28;20043;-73
2022/12/20 04:21:58;;;;;;;42.38;22.17;;;;;;;-4.45;83.38;100059.81;5112588;28;20044;-72
2022/12/20 04:24:27;;;;;;;40.35;22.58;;;;;;;-8.41;83.04;99371.66;5112746;28;20048;-72
2022/12/20 04:26:59;;;;;;;39.40;21.38;;;;;;;-10.66;82.59;99023.75;5112389;28;20044;-72
2022/12/20 04:29:29;;;;;;;43.70;23.95;;;;;;;-2.51;83.64;100382.38;5111996;28;20036;-73
2022/12/20 04:31:58;;;;;;;45.88;23.88;;;;;;;-2.48;83.51;100387.63;5111557;28;20059;-73
2022/12/20 04:34:29;;;;;;;42.70;22.95;;;;;;;-3.07;83.36;100439.47;5096961;28;20044;-73
2022/12/20 04:36:56;;;;;;;43.13;23.15;;;;;;;-2.43;83.39;100385.09;5112786;28;20040;-73
2022/12/20 04:39:24;;;;;;;47.15;24.50;;;;;;;-10.11;82.61;99371.91;5112854;28;20044;-72
2022/12/20 04:41:53;;;;;;;41.35;22.38;;;;;;;-2.44;83.52;100376.44;5111659;28;20062;-72
2022/12/20 04:44:19;;;;;;;43.15;22.50;;;;;;;-2.45;83.42;100366.03;5112086;28;20040;-72
2022/12/20 04:46:46;;;;;;;46.28;21.88;;;;;;;-2.48;83.62;100369.44;5112292;28;20036;-72
2022/12/20 04:49:13;;;;;;;44.75;22.80;;;;;;;-14.20;82.45;98533.59;5111924;28;20319;-72
2022/12/20 04:51:39;;;;;;;49.65;27.05;;;;;;;-2.61;83.56;100341.59;5111791;28;20064;-72
2022/12/20 04:54:05;;;;;;;42.38;23.83;;;;;;;-2.47;83.83;100362.53;5112676;28;20198;-72
2022/12/20 04:56:40;;;;;;;45.08;24.17;;;;;;;-10.88;82.45;98976.31;5112773;28;20047;-73
2022/12/20 04:59:09;;;;;;;43.65;23.58;;;;;;;-10.15;82.89;99057.38;5115153;28;20036;-73
2022/12/20 05:01:36;;;;;;;45.00;24.27;;;;;;;-9.63;82.78;99145.69;5099573;28;20062;-74
2022/12/20 05:04:04;;;;;;;43.95;22.27;;;;;;;-9.41;82.94;99175.25;5117078;28;20036;-74
2022/12/20 05:06:31;;;;;;;46.13;24.25;;;;;;;-9.34;82.85;99171.97;5116800;28;20036;-73
2022/12/20 05:08:57;;;;;;;46.25;22.15;;;;;;;-2.41;83.79;100357.44;5117619;28;20048;-74
2022/12/20 05:11:24;;;;;;;43.85;24.40;;;;;;;-2.38;83.72;100349.69;5117324;28;20035;-73
2022/12/20 05:13:51;;;;;;;43.70;24.02;;;;;;;-2.39;83.69;100355.72;5116721;28;20040;-74
2022/12/20 05:16:19;;;;;;;42.85;22.95;;;;;;;-2.43;83.84;100359.13;5117228;28;20040;-73
2022/12/20 05:18:46;;;;;;;47.03;24.73;;;;;;;-2.49;84.01;100349.53;5116718;28;20059;-73
2022/12/20 05:26:41;;;;;;;47.70;28.08;;;;;;;-5.16;84.03;100196.38;5117039;28;20196;-74
2022/12/20 05:29:08;;;;;;;41.35;24.65;;;;;;;-8.06;83.69;99515.53;5117037;28;20179;-73
2022/12/20 05:31:36;;;;;;;46.80;25.02;;;;;;;-10.46;83.14;98967.88;5116763;28;20100;-74
2022/12/20 05:34:03;;;;;;;47.40;23.65;;;;;;;-2.44;84.19;100342.69;5116103;28;20040;-74
2022/12/20 05:36:30;;;;;;;50.55;23.48;;;;;;;-2.46;84.11;100335.72;5116019;28;20050;-74
2022/12/20 05:38:57;;;;;;;47.78;23.73;;;;;;;-2.46;84.15;100334.00;5116739;28;20040;-74
2022/12/20 05:41:24;;;;;;;49.00;24.77;;;;;;;-8.63;83.34;99277.84;5116580;28;20101;-73
2022/12/20 05:43:50;;;;;;;42.25;23.80;;;;;;;-8.80;83.25;99254.41;5116936;28;20055;-73
2022/12/20 05:46:17;;;;;;;46.83;25.52;;;;;;;-10.86;83.05;99179.44;5116693;28;20107;-73
2022/12/20 05:48:46;;;;;;;47.92;24.45;;;;;;;-10.25;83.09;98999.06;5116649;28;20054;-74
2022/12/20 05:51:13;;;;;;;46.28;23.33;;;;;;;-10.57;83.28;98941.16;5116689;28;20044;-74
2022/12/20 05:53:40;;;;;;;48.85;24.95;;;;;;;-8.12;83.43;99372.25;5116832;28;20082;-74
2022/12/20 05:56:08;;;;;;;44.92;25.88;;;;;;;-2.41;84.11;100347.91;5116395;28;20081;-74
2022/12/20 05:58:34;;;;;;;49.65;26.30;;;;;;;-10.09;83.30;99054.97;5116424;28;20043;-74
2022/12/20 06:01:02;;;;;;;46.20;25.67;;;;;;;-2.45;84.00;100403.25;5116011;28;20044;-73
2022/12/20 06:03:28;;;;;;;47.22;23.80;;;;;;;-9.16;83.69;99203.13;5115492;28;20067;-73
2022/12/20 06:05:57;;;;;;;49.15;24.25;;;;;;;-2.44;84.31;100355.66;5116204;28;20066;-74
2022/12/20 06:08:24;;;;;;;47.10;24.02;;;;;;;-9.54;83.46;99120.25;5115791;28;20058;-73
2022/12/20 06:10:50;;;;;;;47.90;24.88;;;;;;;-2.41;84.32;100324.53;5115073;28;20070;-74
2022/12/20 06:13:18;;;;;;;43.15;23.02;;;;;;;-10.25;83.40;98990.53;5115314;28;20044;-74
2022/12/20 06:15:45;;;;;;;46.15;24.88;;;;;;;-9.20;83.48;99174.78;5115845;28;20040;-74
2022/12/20 06:18:12;;;;;;;48.65;25.85;;;;;;;-10.55;83.28;98942.06;5114149;28;20115;-74
2022/12/20 06:20:39;;;;;;;49.25;26.88;;;;;;;-2.38;84.10;100337.56;5115473;28;20043;-74
2022/12/20 06:23:08;;;;;;;49.22;23.88;;;;;;;-9.51;83.44;99115.16;5115035;28;20042;-73
2022/12/20 06:25:36;;;;;;;44.22;23.75;;;;;;;-9.03;83.54;99273.56;5115339;28;20062;-73
2022/12/20 06:28:04;;;;;;;51.85;25.13;;;;;;;-2.39;84.27;100334.94;5114840;28;20040;-74
2022/12/20 06:30:31;;;;;;;47.65;24.88;;;;;;;-10.92;83.56;99106.75;5114979;28;20060;-74
2022/12/20 06:32:57;;;;;;;48.20;25.45;;;;;;;-2.43;84.50;100340.97;5115262;28;20046;-74
2022/12/20 06:35:24;;;;;;;48.50;24.90;;;;;;;-2.45;84.54;100337.47;5114901;28;20043;-74
2022/12/20 06:37:51;;;;;;;47.97;26.02;;;;;;;-2.44;84.69;100340.09;5114812;28;20067;-73
2022/12/20 06:40:22;;;;;;;48.88;25.25;;;;;;;-2.43;84.65;100344.44;5114237;28;20223;-74
2022/12/20 06:42:49;;;;;;;47.55;26.35;;;;;;;-2.42;84.51;100335.78;5114817;28;20144;-74
2022/12/20 06:45:16;;;;;;;49.80;25.58;;;;;;;-14.67;83.14;98443.16;5114954;28;20039;-73
2022/12/20 06:47:43;;;;;;;56.53;27.25;;;;;;;-10.74;83.92;98904.94;5114520;28;20280;-73
2022/12/20 06:50:10;;;;;;;49.80;26.63;;;;;;;-8.24;84.23;99329.16;5114524;28;20040;-74
2022/12/20 06:52:37;;;;;;;49.10;23.52;;;;;;;-3.03;84.56;100219.94;5113620;28;20040;-74
2022/12/20 06:55:04;;;;;;;50.30;25.40;;;;;;;-2.41;84.63;100334.94;5115087;28;20040;-74
2022/12/20 06:57:32;;;;;;;49.83;25.40;;;;;;;-4.37;84.76;99992.66;5115022;28;20050;-74
2022/12/20 06:59:59;;;;;;;49.53;23.58;;;;;;;-9.78;83.92;99071.00;5114476;28;20043;-74
2022/12/20 07:02:26;;;;;;;49.85;25.70;;;;;;;-10.17;83.92;99007.78;5114652;28;20044;-74
2022/12/20 07:04:53;;;;;;;49.97;26.48;;;;;;;-7.98;84.13;99383.66;5113567;28;20050;-73
2022/12/20 07:07:19;;;;;;;45.67;25.60;;;;;;;-2.41;84.73;100326.28;5114233;28;20040;-73
2022/12/20 07:09:46;;;;;;;45.95;22.83;;;;;;;-9.90;83.96;99040.84;5114337;28;20044;-73
2022/12/20 07:12:13;;;;;;;45.22;23.63;;;;;;;-2.43;85.08;100327.97;5113680;28;20040;-73
2022/12/20 07:14:41;;;;;;;42.13;24.48;;;;;;;-2.43;85.03;100328.84;5112551;28;20043;-73
2022/12/20 07:17:08;;;;;;;49.47;27.23;;;;;;;-8.50;84.31;99292.69;5113167;28;20063;-74
2022/12/20 07:19:35;;;;;;;49.42;25.55;;;;;;;-9.89;84.06;99062.22;5114241;28;20054;-74
2022/12/20 07:22:02;;;;;;;48.72;27.08;;;;;;;-9.74;84.12;99106.13;5113082;28;20050;-73
2022/12/20 07:24:29;;;;;;;50.08;26.45;;;;;;;-10.02;83.93;99053.38;5112756;28;20300;-74
2022/12/20 07:26:55;;;;;;;47.22;25.25;;;;;;;-2.33;84.74;100355.81;5112803;28;20107;-74
2022/12/20 07:29:22;;;;;;;51.42;25.10;;;;;;;-2.30;84.66;100348.91;5112855;28;20047;-74
2022/12/20 07:31:50;;;;;;;52.90;27.60;;;;;;;-2.29;85.01;100336.81;5112518;28;20089;-74
2022/12/20 07:34:19;;;;;;;52.67;24.65;;;;;;;-9.59;83.83;99088.50;5111955;28;20046;-74
2022/12/20 07:36:46;;;;;;;52.15;27.10;;;;;;;-8.77;84.04;99227.91;5111247;28;20129;-74
2022/12/20 07:39:13;;;;;;;50.30;24.55;;;;;;;-2.35;84.88;100313.38;5111084;28;20044;-74
2022/12/20 07:41:40;;;;;;;49.28;25.73;;;;;;;-7.98;84.46;99347.66;5110979;28;20255;-74
2022/12/20 07:44:06;;;;;;;58.13;28.90;;;;;;;-2.34;85.24;100307.31;5109790;28;20031;-74
2022/12/20 07:46:33;;;;;;;50.63;25.30;;;;;;;-2.36;85.19;100320.28;5111456;28;20059;-73
2022/12/20 07:49:01;;;;;;;53.83;29.17;;;;;;;-4.29;84.87;99984.16;5111117;28;20044;-74
2022/12/20 07:51:31;;;;;;;52.90;27.98;;;;;;;-2.35;85.36;100315.97;5111291;28;20050;-74
2022/12/20 07:54:02;;;;;;;56.65;26.40;;;;;;;-2.32;85.22;100319.47;5111043;28;20097;-73
2022/12/20 07:56:31;;;;;;;53.10;30.08;;;;;;;-9.09;84.54;99152.75;5111464;28;20044;-73
2022/12/20 07:59:00;;;;;;;50.08;24.02;;;;;;;-10.41;84.51;98941.50;5111436;28;20050;-74
2022/12/20 08:01:29;;;;;;;50.97;23.73;;;;;;;-9.01;84.56;99199.13;5110515;28;20040;-74
2022/12/20 08:04:00;;;;;;;51.10;26.83;;;;;;;-12.07;84.10;98678.56;5110972;28;20040;-74
2022/12/20 08:06:29;;;;;;;53.50;26.85;;;;;;;-2.27;84.97;100336.81;5110689;28;20044;-74
2022/12/20 08:09:02;;;;;;;50.55;26.08;;;;;;;-8.27;84.56;99312.81;5111336;28;20060;-74
2022/12/20 08:11:30;;;;;;;47.63;24.50;;;;;;;-8.23;84.83;99335.19;5111257;28;20054;-74
2022/12/20 08:13:57;;;;;;;56.88;25.90;;;;;;;-7.66;84.75;99417.72;5110703;28;20039;-74
2022/12/20 08:16:24;;;;;;;54.28;25.88;;;;;;;-9.45;84.63;99117.00;5110889;28;20151;-74
2022/12/20 08:18:51;;;;;;;50.72;26.90;;;;;;;-2.34;85.54;100336.75;5111227;28;20044;-74
2022/12/20 08:21:17;;;;;;;48.85;26.85;;;;;;;-2.35;85.59;100335.00;5111988;28;20040;-74
2022/12/20 08:23:46;;;;;;;48.35;24.38;;;;;;;-9.95;84.68;99026.19;5111320;28;20063;-73
2022/12/20 08:26:13;;;;;;;51.35;26.17;;;;;;;-9.46;84.77;99108.44;5112239;28;20051;-74
2022/12/20 08:28:39;;;;;;;48.33;26.42;;;;;;;-10.36;84.48;98948.44;5111635;28;20078;-74
2022/12/20 08:31:08;;;;;;;48.15;23.38;;;;;;;-9.77;84.54;99052.22;5111541;28;20059;-74
2022/12/20 08:33:36;;;;;;;46.40;24.42;;;;;;;-2.37;85.55;100315.06;5114732;28;20102;-73
2022/12/20 08:36:05;;;;;;;48.45;25.48;;;;;;;-9.90;84.69;99034.84;5115278;28;20050;-74
2022/12/20 08:38:32;;;;;;;50.67;26.85;;;;;;;-8.40;84.90;99285.16;5115680;28;20054;-74
2022/12/20 08:41:04;;;;;;;55.15;28.08;;;;;;;-7.99;84.97;99337.34;5115747;28;20044;-74
2022/12/20 08:43:31;;;;;;;46.53;24.65;;;;;;;-10.92;84.70;98833.72;5115403;28;20040;-74
2022/12/20 08:46:00;;;;;;;52.97;27.73;;;;;;;-4.60;85.41;100169.06;5114699;28;20055;-74
2022/12/20 08:48:29;;;;;;;47.53;25.33;;;;;;;-11.27;84.44;98999.25;5114352;28;20046;-73
2022/12/20 08:50:57;;;;;;;48.67;22.83;;;;;;;-2.36;85.66;100311.63;5114955;28;20040;-74
2022/12/20 08:53:24;;;;;;;48.10;23.95;;;;;;;-9.72;84.97;99048.03;5115268;28;20044;-73
2022/12/20 08:55:52;;;;;;;51.00;25.58;;;;;;;-8.20;85.10;99309.53;5115213;28;20094;-73
2022/12/20 08:58:21;;;;;;;51.00;24.55;;;;;;;-7.91;84.95;99344.34;5114344;28;20047;-74
2022/12/20 09:00:48;;;;;;;45.78;23.17;;;;;;;-2.36;85.68;100309.91;5114802;28;20058;-74
2022/12/20 09:03:14;;;;;;;55.10;25.95;;;;;;;-2.36;85.53;100301.25;5114456;28;20046;-73
2022/12/20 09:05:46;;;;;;;43.53;21.38;;;;;;;-8.57;84.94;99236.84;5114534;28;20048;-74
2022/12/20 09:08:14;;;;;;;43.67;23.65;;;;;;;-6.88;84.93;99591.66;5114601;28;20044;-74
2022/12/20 09:10:42;;;;;;;41.63;22.00;;;;;;;-10.19;84.43;99239.25;5113813;28;20057;-74
2022/12/20 09:13:09;;;;;;;51.60;25.67;;;;;;;-2.27;85.53;100301.34;5113855;28;20047;-74
2022/12/20 09:15:38;;;;;;;44.83;23.77;;;;;;;-3.09;85.19;100168.88;5113611;28;20318;-74
2022/12/20 09:18:05;;;;;;;41.35;21.73;;;;;;;-2.25;85.42;100311.75;5113787;28;20106;-74
2022/12/20 09:20:32;;;;;;;48.70;24.35;;;;;;;-2.25;85.38;100330.78;5113731;28;20065;-74
2022/12/20 09:23:08;;;;;;;44.85;21.10;;;;;;;-2.25;85.34;100307.44;5113856;28;20070;-74
2022/12/20 09:25:36;;;;;;;43.53;22.45;;;;;;;-3.87;85.06;100262.69;5113095;28;20055;-74
2022/12/20 09:28:03;;;;;;;43.72;24.10;;;;;;;-9.68;84.41;99011.34;5114016;28;20048;-74
2022/12/20 09:30:30;;;;;;;40.28;21.13;;;;;;;-9.10;84.43;99113.38;5113516;28;20068;-74
2022/12/20 09:32:58;;;;;;;42.05;20.92;;;;;;;-9.68;84.31;99011.34;5113959;28;20046;-74
2022/12/20 09:35:25;;;;;;;39.95;20.77;;;;;;;-10.37;84.04;98891.22;5113831;28;20036;-74
2022/12/20 09:37:52;;;;;;;41.63;23.23;;;;;;;-9.53;84.07;99021.91;5113845;28;20070;-73
2022/12/20 09:40:22;;;;;;;46.15;21.33;;;;;;;-2.19;84.93;100265.94;5114454;28;20047;-74
2022/12/20 09:42:52;;;;;;;47.70;21.70;;;;;;;-2.17;84.70;100279.81;5114688;28;20044;-74
2022/12/20 09:45:25;;;;;;;42.08;19.85;;;;;;;-9.69;83.78;98983.13;5113767;28;20036;-74
2022/12/20 09:47:52;;;;;;;40.83;21.20;;;;;;;-9.80;83.77;98968.38;5114415;28;20096;-74
2022/12/20 09:50:37;;;;;;;39.88;20.75;;;;;;;-8.82;83.81;99137.88;5114791;28;20044;-74
2022/12/20 09:53:14;;;;;;;41.67;22.55;;;;;;;-8.57;83.87;99179.47;5114614;28;20040;-74
2022/12/20 09:55:53;;;;;;;38.70;20.08;;;;;;;-7.71;83.82;99320.69;5113491;28;20047;-73
2022/12/20 09:58:33;;;;;;;42.67;20.73;;;;;;;-3.91;84.41;100033.00;5113584;28;20035;-74
2022/12/20 10:01:15;;;;;;;45.83;21.02;;;;;;;-2.20;84.21;100268.53;5112992;28;20036;-74
2022/12/20 10:03:42;;;;;;;32.58;18.77;;;;;;;-2.20;84.39;100263.34;5113000;28;20046;-74
2022/12/20 10:06:19;;;;;;;43.25;18.58;;;;;;;-9.71;83.46;98980.53;5113273;28;20307;-73
2022/12/20 10:08:51;;;;;;;35.92;18.48;;;;;;;-2.23;84.33;100277.16;5113235;28;20097;-74
2022/12/20 10:11:49;;;;;;;38.35;21.15;;;;;;;-8.59;83.33;99191.41;5113045;28;20078;-74
2022/12/20 10:14:35;;;;;;;37.92;20.42;;;;;;;-2.28;84.22;100267.56;5112997;28;20040;-75
2022/12/20 10:17:05;;;;;;;39.40;20.88;;;;;;;-3.07;84.26;100130.88;5112844;28;20040;-73
2022/12/20 10:19:57;;;;;;;32.80;19.85;;;;;;;-7.55;83.22;99725.09;5112727;28;20050;-74
2022/12/20 10:22:35;;;;;;;36.15;19.45;;;;;;;-2.26;84.21;100253.75;5113243;28;20107;-74
2022/12/20 10:25:12;;;;;;;36.70;17.25;;;;;;;-9.72;83.33;98983.91;5113191;28;20180;-74
2022/12/20 10:27:42;;;;;;;39.75;21.42;;;;;;;-2.25;84.09;100288.38;5112660;28;20283;-74
2022/12/20 10:30:14;;;;;;;45.47;22.90;;;;;;;-7.56;83.51;99326.94;5112411;28;20036;-74
2022/12/20 10:32:44;;;;;;;39.63;20.05;;;;;;;-9.53;83.04;98985.13;5112391;28;20084;-74
2022/12/20 10:35:23;;;;;;;35.47;19.05;;;;;;;-8.01;83.19;99242.16;5112093;28;20356;-73
2022/12/20 10:38:01;;;;;;;35.13;17.85;;;;;;;-2.24;83.93;100228.66;5112387;28;20192;-73
2022/12/20 10:40:30;;;;;;;36.88;18.20;;;;;;;-4.16;83.72;99891.13;5112284;28;20039;-74
2022/12/20 10:42:57;;;;;;;39.42;20.10;;;;;;;-10.20;82.68;98848.84;5112099;28;20032;-73
2022/12/20 10:45:32;;;;;;;42.45;21.08;;;;;;;-10.01;82.87;98897.88;5112259;28;20036;-73
2022/12/20 10:48:01;;;;;;;39.65;20.88;;;;;;;-7.81;83.08;99268.19;5111492;28;20051;-74
2022/12/20 10:50:29;;;;;;;42.58;19.02;;;;;;;-4.08;83.42;100101.81;5112643;28;20046;-74
2022/12/20 10:53:31;;;;;;;37.08;19.95;;;;;;;-2.21;83.70;100205.31;5094432;28;20042;-74
2022/12/20 10:56:16;;;;;;;39.20;19.95;;;;;;;-2.21;83.65;100199.25;5110632;28;20217;-74
2022/12/20 10:58:43;;;;;;;;;;;;;;;-2.26;83.68;100195.75;5112507;28;20044;-74
2022/12/20 11:01:16;;;;;;;42.10;20.42;;;;;;;-2.26;83.99;100186.25;5111697;28;19999;-74
2022/12/20 11:03:52;;;;;;;40.10;21.35;;;;;;;-8.72;83.09;99082.44;5111728;28;20043;-74
2022/12/20 11:06:20;;;;;;;51.30;22.13;;;;;;;-2.23;83.91;100186.25;5112323;28;20104;-73
2022/12/20 11:08:50;;;;;;;40.08;19.70;;;;;;;-2.21;84.16;100194.94;5111336;28;20108;-74
2022/12/20 11:11:20;;;;;;;42.58;20.20;;;;;;;-2.24;83.91;100170.66;5111294;28;20047;-74
2022/12/20 11:13:48;;;;;;;45.45;22.17;;;;;;;-4.18;83.68;99844.53;5112597;28;20050;-73
2022/12/20 11:16:29;;;;;;;43.13;20.23;;;;;;;-8.68;83.28;99062.78;5112858;28;20036;-74
2022/12/20 11:19:10;;;;;;;45.47;22.63;;;;;;;-10.49;83.17;98743.25;5112666;28;20040;-74
2022/12/20 11:21:46;;;;;;;54.15;25.80;;;;;;;-2.24;84.36;100157.69;5112064;28;20040;-74
2022/12/20 11:24:27;;;;;;;51.05;24.23;;;;;;;-8.62;83.59;99058.63;5112612;28;20067;-74
2022/12/20 11:27:15;;;;;;;54.05;26.48;;;;;;;-2.25;84.46;100145.56;5112515;28;20044;-74
2022/12/20 11:30:08;;;;;;;45.35;23.20;;;;;;;-10.04;83.44;98816.66;5112744;28;20044;-73
2022/12/20 11:33:02;;;;;;;37.72;18.75;;;;;;;-2.25;84.54;100143.84;5112062;28;20048;-74
2022/12/20 11:35:49;;;;;;;46.08;24.95;;;;;;;-2.26;84.35;100144.69;5108803;28;20054;-73